sensor_id;sensor_type;location;lat;lon;timestamp;pressure;altitude;pressure_sealevel;temperature;humidity
15193;BME280;7697;51.630;7.484;2022-09-13T00:02:53;100302.78;;;19.38;77.59
15193;BME280;7697;51.630;7.484;2022-09-13T00:07:56;100296.59;;;19.38;77.90
15193;BME280;7697;51.630;7.484;2022-09-13T00:12:58;100292.53;;;19.30;78.37
15193;BME280;7697;51.630;7.484;2022-09-13T00:18:01;100280.44;;;19.33;77.88
15193;BME280;7697;51.630;7.484;2022-09-13T00:23:04;100272.13;;;19.34;77.63
15193;BME280;7697;51.630;7.484;2022-09-13T00:28:09;100269.47;;;19.39;77.84
15193;BME280;7697;51.630;7.484;2022-09-13T00:33:11;100262.50;;;19.38;77.67
15193;BME280;7697;51.630;7.484;2022-09-13T00:38:14;100257.38;;;19.42;76.66
15193;BME280;7697;51.630;7.484;2022-09-13T00:43:17;100254.97;;;19.45;76.34
15193;BME280;7697;51.630;7.484;2022-09-13T00:48:21;100248.84;;;19.50;76.05
15193;BME280;7697;51.630;7.484;2022-09-13T00:53:28;100242.94;;;19.53;75.85
15193;BME280;7697;51.630;7.484;2022-09-13T00:58:32;100233.00;;;19.54;75.74
15193;BME280;7697;51.630;7.484;2022-09-13T01:03:35;100235.69;;;19.54;76.50
15193;BME280;7697;51.630;7.484;2022-09-13T01:08:41;100229.75;;;19.52;76.72
15193;BME280;7697;51.630;7.484;2022-09-13T01:13:44;100239.69;;;19.51;77.19
15193;BME280;7697;51.630;7.484;2022-09-13T01:18:47;100242.13;;;19.47;77.26
15193;BME280;7697;51.630;7.484;2022-09-13T01:24:36;100230.81;;;19.45;77.13
15193;BME280;7697;51.630;7.484;2022-09-13T01:30:07;100221.69;;;19.41;77.50
15193;BME280;7697;51.630;7.484;2022-09-13T01:35:17;100225.69;;;19.39;77.27
15193;BME280;7697;51.630;7.484;2022-09-13T01:40:34;100220.31;;;19.39;77.42
15193;BME280;7697;51.630;7.484;2022-09-13T01:45:50;100217.91;;;19.37;77.25
15193;BME280;7697;51.630;7.484;2022-09-13T01:50:59;100216.28;;;19.36;77.53
15193;BME280;7697;51.630;7.484;2022-09-13T01:56:06;100221.66;;;19.31;77.90
15193;BME280;7697;51.630;7.484;2022-09-13T02:01:15;100218.38;;;19.24;78.40
15193;BME280;7697;51.630;7.484;2022-09-13T02:06:20;100216.81;;;19.23;78.41
15193;BME280;7697;51.630;7.484;2022-09-13T02:11:23;100218.94;;;19.21;78.61
15193;BME280;7697;51.630;7.484;2022-09-13T02:16:29;100226.75;;;19.23;79.18
15193;BME280;7697;51.630;7.484;2022-09-13T02:21:35;100230.50;;;19.22;78.60
15193;BME280;7697;51.630;7.484;2022-09-13T02:26:39;100233.69;;;19.19;78.94
15193;BME280;7697;51.630;7.484;2022-09-13T02:31:53;100221.06;;;19.19;79.59
15193;BME280;7697;51.630;7.484;2022-09-13T02:36:56;100219.97;;;19.15;79.43
15193;BME280;7697;51.630;7.484;2022-09-13T02:42:03;100227.25;;;19.15;80.19
15193;BME280;7697;51.630;7.484;2022-09-13T02:47:19;100219.72;;;19.11;80.42
15193;BME280;7697;51.630;7.484;2022-09-13T02:52:33;100206.56;;;19.10;80.40
15193;BME280;7697;51.630;7.484;2022-09-13T02:57:41;100215.66;;;19.09;80.77
15193;BME280;7697;51.630;7.484;2022-09-13T03:02:51;100211.91;;;19.10;80.29
15193;BME280;7697;51.630;7.484;2022-09-13T03:07:55;100209.75;;;19.07;80.97
15193;BME280;7697;51.630;7.484;2022-09-13T03:13:18;100215.38;;;19.00;82.47
15193;BME280;7697;51.630;7.484;2022-09-13T03:18:37;100219.13;;;18.99;82.96
15193;BME280;7697;51.630;7.484;2022-09-13T03:23:48;100222.09;;;19.03;83.26
15193;BME280;7697;51.630;7.484;2022-09-13T03:34:32;100229.88;;;18.94;83.40
15193;BME280;7697;51.630;7.484;2022-09-13T03:39:39;100219.63;;;18.91;83.48
15193;BME280;7697;51.630;7.484;2022-09-13T03:44:44;100221.50;;;18.91;84.46
15193;BME280;7697;51.630;7.484;2022-09-13T03:49:50;100221.78;;;18.89;84.64
15193;BME280;7697;51.630;7.484;2022-09-13T03:54:56;100216.94;;;18.86;85.12
15193;BME280;7697;51.630;7.484;2022-09-13T03:59:58;100212.66;;;18.90;85.12
15193;BME280;7697;51.630;7.484;2022-09-13T04:05:01;100212.41;;;18.92;85.61
15193;BME280;7697;51.630;7.484;2022-09-13T04:10:04;100197.63;;;18.89;85.40
15193;BME280;7697;51.630;7.484;2022-09-13T04:15:07;100184.50;;;18.88;85.56
15193;BME280;7697;51.630;7.484;2022-09-13T04:20:10;100195.75;;;18.85;85.89
15193;BME280;7697;51.630;7.484;2022-09-13T04:25:12;100190.63;;;18.83;86.17
15193;BME280;7697;51.630;7.484;2022-09-13T04:30:17;100197.34;;;18.86;86.08
15193;BME280;7697;51.630;7.484;2022-09-13T04:35:20;100190.13;;;18.86;86.10
15193;BME280;7697;51.630;7.484;2022-09-13T04:40:22;100207.03;;;18.87;86.34
15193;BME280;7697;51.630;7.484;2022-09-13T04:45:24;100203.78;;;18.85;86.56
15193;BME280;7697;51.630;7.484;2022-09-13T04:50:27;100201.06;;;18.80;86.63
15193;BME280;7697;51.630;7.484;2022-09-13T04:55:28;100201.88;;;18.80;87.06
15193;BME280;7697;51.630;7.484;2022-09-13T05:00:31;100200.81;;;18.76;87.43
15193;BME280;7697;51.630;7.484;2022-09-13T05:05:34;100193.28;;;18.73;87.52
15193;BME280;7697;51.630;7.484;2022-09-13T05:10:36;100195.19;;;18.78;87.59
15193;BME280;7697;51.630;7.484;2022-09-13T05:15:38;100190.06;;;18.76;87.47
15193;BME280;7697;51.630;7.484;2022-09-13T05:20:41;100198.13;;;18.81;87.67
15193;BME280;7697;51.630;7.484;2022-09-13T05:25:42;100191.94;;;18.81;87.83
15193;BME280;7697;51.630;7.484;2022-09-13T05:30:53;100198.38;;;18.80;88.23
15193;BME280;7697;51.630;7.484;2022-09-13T05:35:59;100208.34;;;18.84;88.24
15193;BME280;7697;51.630;7.484;2022-09-13T05:41:02;100209.97;;;18.85;87.65
15193;BME280;7697;51.630;7.484;2022-09-13T05:46:05;100215.06;;;18.87;87.52
15193;BME280;7697;51.630;7.484;2022-09-13T05:51:10;100218.28;;;18.89;87.78
15193;BME280;7697;51.630;7.484;2022-09-13T05:56:14;100215.38;;;18.95;87.77
15193;BME280;7697;51.630;7.484;2022-09-13T06:01:17;100221.56;;;18.96;87.89
15193;BME280;7697;51.630;7.484;2022-09-13T06:06:21;100216.19;;;18.96;87.89
15193;BME280;7697;51.630;7.484;2022-09-13T06:11:24;100218.88;;;18.96;87.76
15193;BME280;7697;51.630;7.484;2022-09-13T06:16:26;100213.75;;;18.94;88.07
15193;BME280;7697;51.630;7.484;2022-09-13T06:21:29;100229.88;;;18.99;87.61
15193;BME280;7697;51.630;7.484;2022-09-13T06:26:31;100238.72;;;18.95;87.32
15193;BME280;7697;51.630;7.484;2022-09-13T06:31:32;100239.78;;;18.94;87.76
15193;BME280;7697;51.630;7.484;2022-09-13T06:36:38;100236.59;;;19.02;87.39
15193;BME280;7697;51.630;7.484;2022-09-13T06:41:40;100248.41;;;19.06;87.20
15193;BME280;7697;51.630;7.484;2022-09-13T06:46:42;100239.56;;;19.10;86.87
15193;BME280;7697;51.630;7.484;2022-09-13T06:51:45;100238.50;;;19.17;87.02
15193;BME280;7697;51.630;7.484;2022-09-13T06:56:47;100242.31;;;19.26;86.96
15193;BME280;7697;51.630;7.484;2022-09-13T07:01:49;100242.59;;;19.34;86.51
15193;BME280;7697;51.630;7.484;2022-09-13T07:06:52;100240.19;;;19.43;86.04
15193;BME280;7697;51.630;7.484;2022-09-13T07:11:55;100242.69;;;19.50;85.90
15193;BME280;7697;51.630;7.484;2022-09-13T07:16:56;100252.63;;;19.59;85.83
15193;BME280;7697;51.630;7.484;2022-09-13T07:22:01;100246.72;;;19.72;85.62
15193;BME280;7697;51.630;7.484;2022-09-13T07:27:03;100240.00;;;19.90;85.47
15193;BME280;7697;51.630;7.484;2022-09-13T07:32:05;100248.06;;;20.00;85.07
15193;BME280;7697;51.630;7.484;2022-09-13T07:37:11;100255.59;;;20.08;85.16
15193;BME280;7697;51.630;7.484;2022-09-13T07:42:13;100256.41;;;20.19;84.51
15193;BME280;7697;51.630;7.484;2022-09-13T07:47:15;100261.25;;;20.37;83.93
15193;BME280;7697;51.630;7.484;2022-09-13T07:52:18;100262.53;;;20.65;83.05
15193;BME280;7697;51.630;7.484;2022-09-13T07:57:20;100268.94;;;20.84;82.12
15193;BME280;7697;51.630;7.484;2022-09-13T08:02:22;100268.09;;;20.94;82.39
15193;BME280;7697;51.630;7.484;2022-09-13T08:07:25;100264.00;;;21.07;81.33
15193;BME280;7697;51.630;7.484;2022-09-13T08:12:27;100268.84;;;21.20;81.49
15193;BME280;7697;51.630;7.484;2022-09-13T08:17:28;100274.69;;;21.32;81.59
15193;BME280;7697;51.630;7.484;2022-09-13T08:22:32;100279.91;;;21.62;80.79
15193;BME280;7697;51.630;7.484;2022-09-13T08:27:34;100273.72;;;21.96;78.11
15193;BME280;7697;51.630;7.484;2022-09-13T08:32:37;100274.81;;;22.29;77.69
15193;BME280;7697;51.630;7.484;2022-09-13T08:37:40;100281.75;;;22.64;75.67
15193;BME280;7697;51.630;7.484;2022-09-13T08:42:49;100281.41;;;22.99;73.55
15193;BME280;7697;51.630;7.484;2022-09-13T08:47:55;100276.53;;;23.20;72.75
15193;BME280;7697;51.630;7.484;2022-09-13T08:53:05;100270.28;;;23.43;73.02
15193;BME280;7697;51.630;7.484;2022-09-13T08:58:30;100276.81;;;23.61;71.95
15193;BME280;7697;51.630;7.484;2022-09-13T09:03:40;100268.84;;;23.70;72.53
15193;BME280;7697;51.630;7.484;2022-09-13T09:08:47;100275.19;;;23.98;70.63
15193;BME280;7697;51.630;7.484;2022-09-13T09:13:53;100274.28;;;24.35;70.13
15193;BME280;7697;51.630;7.484;2022-09-13T09:19:04;100270.13;;;24.83;68.10
15193;BME280;7697;51.630;7.484;2022-09-13T09:24:16;100271.13;;;25.15;66.36
15193;BME280;7697;51.630;7.484;2022-09-13T09:29:20;100266.72;;;25.19;66.83
15193;BME280;7697;51.630;7.484;2022-09-13T09:34:32;100259.19;;;25.52;66.04
15193;BME280;7697;51.630;7.484;2022-09-13T09:39:46;100263.75;;;25.78;66.26
15193;BME280;7697;51.630;7.484;2022-09-13T09:44:51;100252.94;;;26.32;64.14
15193;BME280;7697;51.630;7.484;2022-09-13T09:49:56;100253.78;;;26.41;63.60
15193;BME280;7697;51.630;7.484;2022-09-13T09:55:17;100253.63;;;26.37;65.11
15193;BME280;7697;51.630;7.484;2022-09-13T10:00:26;100257.22;;;26.55;64.36
15193;BME280;7697;51.630;7.484;2022-09-13T10:05:32;100261.44;;;26.78;63.61
15193;BME280;7697;51.630;7.484;2022-09-13T10:10:38;100262.63;;;26.95;62.60
15193;BME280;7697;51.630;7.484;2022-09-13T10:15:52;100264.09;;;26.61;62.73
15193;BME280;7697;51.630;7.484;2022-09-13T10:21:03;100268.44;;;26.62;64.05
15193;BME280;7697;51.630;7.484;2022-09-13T10:26:09;100266.56;;;26.80;62.84
15193;BME280;7697;51.630;7.484;2022-09-13T10:31:12;100259.47;;;26.93;63.77
15193;BME280;7697;51.630;7.484;2022-09-13T10:36:17;100262.06;;;27.15;62.76
15193;BME280;7697;51.630;7.484;2022-09-13T10:41:23;100261.28;;;27.40;61.89
15193;BME280;7697;51.630;7.484;2022-09-13T10:46:30;100263.69;;;27.85;61.66
15193;BME280;7697;51.630;7.484;2022-09-13T10:51:34;100252.97;;;27.88;61.53
15193;BME280;7697;51.630;7.484;2022-09-13T10:56:39;100253.88;;;28.27;60.05
15193;BME280;7697;51.630;7.484;2022-09-13T11:01:48;100241.09;;;28.57;59.77
15193;BME280;7697;51.630;7.484;2022-09-13T11:06:58;100241.06;;;28.27;59.93
15193;BME280;7697;51.630;7.484;2022-09-13T11:12:10;100243.41;;;28.37;59.89
15193;BME280;7697;51.630;7.484;2022-09-13T11:17:40;100242.53;;;28.63;59.54
15193;BME280;7697;51.630;7.484;2022-09-13T11:23:10;100237.78;;;28.89;60.86
15193;BME280;7697;51.630;7.484;2022-09-13T11:28:27;100229.06;;;28.58;59.58
15193;BME280;7697;51.630;7.484;2022-09-13T11:33:41;100229.75;;;28.84;60.26
15193;BME280;7697;51.630;7.484;2022-09-13T11:38:57;100233.00;;;29.28;59.56
15193;BME280;7697;51.630;7.484;2022-09-13T11:44:34;100229.97;;;29.50;58.08
15193;BME280;7697;51.630;7.484;2022-09-13T11:50:02;100231.44;;;29.80;57.46
15193;BME280;7697;51.630;7.484;2022-09-13T11:55:16;100224.44;;;29.92;57.15
15193;BME280;7697;51.630;7.484;2022-09-13T12:00:32;100217.91;;;29.84;56.85
15193;BME280;7697;51.630;7.484;2022-09-13T12:05:39;100213.69;;;29.54;57.19
15193;BME280;7697;51.630;7.484;2022-09-13T12:10:49;100216.22;;;29.17;57.96
15193;BME280;7697;51.630;7.484;2022-09-13T12:15:56;100215.53;;;28.99;58.91
15193;BME280;7697;51.630;7.484;2022-09-13T12:21:07;100203.44;;;29.09;58.48
15193;BME280;7697;51.630;7.484;2022-09-13T12:26:15;100190.97;;;28.99;58.60
15193;BME280;7697;51.630;7.484;2022-09-13T12:31:22;100194.06;;;29.19;57.42
15193;BME280;7697;51.630;7.484;2022-09-13T12:36:46;100197.88;;;29.05;58.26
15193;BME280;7697;51.630;7.484;2022-09-13T12:42:03;100187.59;;;29.02;58.60
15193;BME280;7697;51.630;7.484;2022-09-13T12:47:54;100201.38;;;28.85;58.98
15193;BME280;7697;51.630;7.484;2022-09-13T12:53:07;100200.72;;;28.50;59.03
15193;BME280;7697;51.630;7.484;2022-09-13T12:58:42;100186.78;;;27.96;59.92
15193;BME280;7697;51.630;7.484;2022-09-13T13:03:53;100190.81;;;27.90;61.31
15193;BME280;7697;51.630;7.484;2022-09-13T13:09:02;100184.06;;;27.96;62.20
15193;BME280;7697;51.630;7.484;2022-09-13T13:14:04;100186.31;;;27.94;61.56
15193;BME280;7697;51.630;7.484;2022-09-13T13:19:29;100188.25;;;27.85;61.84
15193;BME280;7697;51.630;7.484;2022-09-13T13:24:46;100184.66;;;28.19;61.71
15193;BME280;7697;51.630;7.484;2022-09-13T13:35:32;100179.03;;;28.16;62.48
15193;BME280;7697;51.630;7.484;2022-09-13T13:40:34;100181.22;;;28.98;60.54
15193;BME280;7697;51.630;7.484;2022-09-13T13:45:36;100179.38;;;28.23;60.42
15193;BME280;7697;51.630;7.484;2022-09-13T13:51:14;100177.16;;;28.16;61.37
15193;BME280;7697;51.630;7.484;2022-09-13T13:56:29;100173.31;;;28.17;62.83
15193;BME280;7697;51.630;7.484;2022-09-13T14:01:35;100172.00;;;28.82;59.58
15193;BME280;7697;51.630;7.484;2022-09-13T14:06:46;100165.94;;;28.09;61.71
15193;BME280;7697;51.630;7.484;2022-09-13T14:11:59;100146.97;;;27.75;61.87
15193;BME280;7697;51.630;7.484;2022-09-13T14:17:31;100151.19;;;27.55;62.68
15193;BME280;7697;51.630;7.484;2022-09-13T14:22:40;100148.44;;;27.46;63.25
15193;BME280;7697;51.630;7.484;2022-09-13T14:27:42;100151.63;;;27.48;63.69
15193;BME280;7697;51.630;7.484;2022-09-13T14:32:46;100145.25;;;27.61;64.53
15193;BME280;7697;51.630;7.484;2022-09-13T14:37:49;100151.97;;;27.64;64.24
15193;BME280;7697;51.630;7.484;2022-09-13T14:42:52;100148.13;;;27.56;63.11
15193;BME280;7697;51.630;7.484;2022-09-13T14:47:56;100143.66;;;27.43;63.43
15193;BME280;7697;51.630;7.484;2022-09-13T14:53:03;100140.47;;;27.24;63.94
15193;BME280;7697;51.630;7.484;2022-09-13T14:58:07;100143.50;;;27.14;64.79
15193;BME280;7697;51.630;7.484;2022-09-13T15:03:15;100145.09;;;27.06;64.91
15193;BME280;7697;51.630;7.484;2022-09-13T15:08:32;100143.34;;;27.02;65.20
15193;BME280;7697;51.630;7.484;2022-09-13T15:13:41;100136.94;;;26.98;66.34
15193;BME280;7697;51.630;7.484;2022-09-13T15:18:43;100134.66;;;26.82;65.27
15193;BME280;7697;51.630;7.484;2022-09-13T15:23:49;100135.59;;;26.69;65.16
15193;BME280;7697;51.630;7.484;2022-09-13T15:28:53;100142.31;;;26.63;66.22
15193;BME280;7697;51.630;7.484;2022-09-13T15:34:18;100137.50;;;26.60;67.05
15193;BME280;7697;51.630;7.484;2022-09-13T15:39:24;100125.50;;;26.52;67.74
15193;BME280;7697;51.630;7.484;2022-09-13T15:44:27;100123.25;;;26.46;66.66
15193;BME280;7697;51.630;7.484;2022-09-13T15:49:30;100124.16;;;26.33;66.98
15193;BME280;7697;51.630;7.484;2022-09-13T15:54:35;100125.38;;;26.18;67.85
15193;BME280;7697;51.630;7.484;2022-09-13T15:59:37;100125.84;;;26.11;68.61
15193;BME280;7697;51.630;7.484;2022-09-13T16:04:39;100120.84;;;26.05;69.03
15193;BME280;7697;51.630;7.484;2022-09-13T16:09:42;100122.94;;;26.08;69.43
15193;BME280;7697;51.630;7.484;2022-09-13T16:14:44;100123.09;;;26.03;69.44
15193;BME280;7697;51.630;7.484;2022-09-13T16:19:46;100127.97;;;25.92;69.37
15193;BME280;7697;51.630;7.484;2022-09-13T16:24:50;100119.59;;;25.80;69.69
15193;BME280;7697;51.630;7.484;2022-09-13T16:29:52;100129.34;;;25.81;70.23
15193;BME280;7697;51.630;7.484;2022-09-13T16:34:53;100123.94;;;25.81;70.90
15193;BME280;7697;51.630;7.484;2022-09-13T16:39:56;100119.13;;;25.78;71.04
15193;BME280;7697;51.630;7.484;2022-09-13T16:44:58;100118.75;;;25.71;71.49
15193;BME280;7697;51.630;7.484;2022-09-13T16:50:00;100119.94;;;25.56;71.42
15193;BME280;7697;51.630;7.484;2022-09-13T16:55:04;100127.38;;;25.51;72.06
15193;BME280;7697;51.630;7.484;2022-09-13T17:00:07;100119.19;;;25.42;71.76
15193;BME280;7697;51.630;7.484;2022-09-13T17:05:10;100135.91;;;25.35;72.24
15193;BME280;7697;51.630;7.484;2022-09-13T17:10:13;100130.13;;;25.28;72.88
15193;BME280;7697;51.630;7.484;2022-09-13T17:15:15;100144.41;;;25.20;72.98
15193;BME280;7697;51.630;7.484;2022-09-13T17:20:17;100146.84;;;25.08;73.39
15193;BME280;7697;51.630;7.484;2022-09-13T17:25:20;100145.16;;;24.98;73.49
15193;BME280;7697;51.630;7.484;2022-09-13T17:30:22;100137.94;;;24.80;73.98
15193;BME280;7697;51.630;7.484;2022-09-13T17:35:25;100141.50;;;24.67;74.41
15193;BME280;7697;51.630;7.484;2022-09-13T17:40:29;100143.03;;;24.59;74.40
15193;BME280;7697;51.630;7.484;2022-09-13T17:45:32;100142.81;;;24.56;74.76
15193;BME280;7697;51.630;7.484;2022-09-13T17:50:34;100147.53;;;24.50;75.15
15193;BME280;7697;51.630;7.484;2022-09-13T17:55:45;100141.13;;;24.46;75.43
15193;BME280;7697;51.630;7.484;2022-09-13T18:00:46;100138.03;;;24.39;75.13
15193;BME280;7697;51.630;7.484;2022-09-13T18:05:53;100143.22;;;24.36;75.54
15193;BME280;7697;51.630;7.484;2022-09-13T18:11:02;100137.91;;;24.30;75.14
15193;BME280;7697;51.630;7.484;2022-09-13T18:16:05;100143.75;;;24.24;75.22
15193;BME280;7697;51.630;7.484;2022-09-13T18:21:07;100152.44;;;24.21;75.17
15193;BME280;7697;51.630;7.484;2022-09-13T18:26:12;100136.78;;;24.18;75.25
15193;BME280;7697;51.630;7.484;2022-09-13T18:31:15;100137.97;;;24.12;75.56
15193;BME280;7697;51.630;7.484;2022-09-13T18:36:17;100139.19;;;24.06;75.58
15193;BME280;7697;51.630;7.484;2022-09-13T18:41:22;100139.25;;;24.01;76.26
15193;BME280;7697;51.630;7.484;2022-09-13T18:46:25;100138.88;;;23.93;76.40
15193;BME280;7697;51.630;7.484;2022-09-13T18:51:29;100141.16;;;23.86;76.65
15193;BME280;7697;51.630;7.484;2022-09-13T18:56:33;100139.94;;;23.79;77.25
15193;BME280;7697;51.630;7.484;2022-09-13T19:01:36;100142.22;;;23.72;77.27
15193;BME280;7697;51.630;7.484;2022-09-13T19:06:40;100153.72;;;23.64;77.94
15193;BME280;7697;51.630;7.484;2022-09-13T19:11:44;100156.59;;;23.53;78.29
15193;BME280;7697;51.630;7.484;2022-09-13T19:16:46;100148.31;;;23.45;78.21
15193;BME280;7697;51.630;7.484;2022-09-13T19:21:48;100157.69;;;23.34;76.71
15193;BME280;7697;51.630;7.484;2022-09-13T19:26:52;100154.72;;;23.16;75.36
15193;BME280;7697;51.630;7.484;2022-09-13T19:31:53;100152.75;;;23.03;73.98
15193;BME280;7697;51.630;7.484;2022-09-13T19:36:55;100158.38;;;22.88;71.11
15193;BME280;7697;51.630;7.484;2022-09-13T19:41:59;100153.09;;;22.78;70.80
15193;BME280;7697;51.630;7.484;2022-09-13T19:47:01;100149.91;;;22.71;69.11
15193;BME280;7697;51.630;7.484;2022-09-13T19:52:03;100150.56;;;22.63;70.09
15193;BME280;7697;51.630;7.484;2022-09-13T19:57:06;100151.69;;;22.57;69.71
15193;BME280;7697;51.630;7.484;2022-09-13T20:02:09;100157.97;;;22.52;70.25
15193;BME280;7697;51.630;7.484;2022-09-13T20:07:11;100163.13;;;22.49;69.41
15193;BME280;7697;51.630;7.484;2022-09-13T20:12:15;100158.63;;;22.44;69.71
15193;BME280;7697;51.630;7.484;2022-09-13T20:17:16;100156.22;;;22.42;70.09
15193;BME280;7697;51.630;7.484;2022-09-13T20:22:23;100161.59;;;22.42;69.91
15193;BME280;7697;51.630;7.484;2022-09-13T20:27:26;100156.84;;;22.34;70.50
15193;BME280;7697;51.630;7.484;2022-09-13T20:32:28;100145.00;;;22.30;70.23
15193;BME280;7697;51.630;7.484;2022-09-13T20:37:30;100141.84;;;22.23;70.45
15193;BME280;7697;51.630;7.484;2022-09-13T20:42:33;100149.75;;;22.15;69.19
15193;BME280;7697;51.630;7.484;2022-09-13T20:47:36;100152.00;;;22.07;70.16
15193;BME280;7697;51.630;7.484;2022-09-13T20:52:37;100131.56;;;22.01;68.27
15193;BME280;7697;51.630;7.484;2022-09-13T20:57:41;100132.75;;;21.85;68.64
15193;BME280;7697;51.630;7.484;2022-09-13T21:02:43;100132.63;;;21.71;68.59
15193;BME280;7697;51.630;7.484;2022-09-13T21:07:46;100122.97;;;21.65;68.68
15193;BME280;7697;51.630;7.484;2022-09-13T21:13:06;100128.13;;;21.62;68.81
15193;BME280;7697;51.630;7.484;2022-09-13T21:18:09;100134.34;;;21.62;69.92
15193;BME280;7697;51.630;7.484;2022-09-13T21:23:11;100131.38;;;21.59;70.52
15193;BME280;7697;51.630;7.484;2022-09-13T21:28:14;100140.63;;;21.53;70.26
15193;BME280;7697;51.630;7.484;2022-09-13T21:33:16;100147.66;;;21.49;70.90
15193;BME280;7697;51.630;7.484;2022-09-13T21:38:18;100148.22;;;21.46;71.17
15193;BME280;7697;51.630;7.484;2022-09-13T21:43:21;100136.66;;;21.40;70.56
15193;BME280;7697;51.630;7.484;2022-09-13T21:48:23;100135.66;;;21.31;70.23
15193;BME280;7697;51.630;7.484;2022-09-13T21:53:25;100142.72;;;21.27;70.16
15193;BME280;7697;51.630;7.484;2022-09-13T21:58:29;100133.84;;;21.21;70.19
15193;BME280;7697;51.630;7.484;2022-09-13T22:03:38;100144.63;;;21.21;70.80
15193;BME280;7697;51.630;7.484;2022-09-13T22:08:42;100146.53;;;21.16;70.09
15193;BME280;7697;51.630;7.484;2022-09-13T22:13:51;100139.03;;;21.08;70.85
15193;BME280;7697;51.630;7.484;2022-09-13T22:18:56;100150.13;;;20.96;69.65
15193;BME280;7697;51.630;7.484;2022-09-13T22:23:58;100148.28;;;20.91;69.89
15193;BME280;7697;51.630;7.484;2022-09-13T22:29:02;100141.31;;;20.85;69.49
15193;BME280;7697;51.630;7.484;2022-09-13T22:34:04;100141.38;;;20.70;70.21
15193;BME280;7697;51.630;7.484;2022-09-13T22:39:08;100144.09;;;20.70;70.99
15193;BME280;7697;51.630;7.484;2022-09-13T22:44:12;100145.22;;;20.54;70.08
15193;BME280;7697;51.630;7.484;2022-09-13T22:49:16;100128.59;;;20.47;70.58
15193;BME280;7697;51.630;7.484;2022-09-13T22:54:20;100137.19;;;20.44;70.57
15193;BME280;7697;51.630;7.484;2022-09-13T22:59:24;100136.38;;;20.48;70.91
15193;BME280;7697;51.630;7.484;2022-09-13T23:10:22;100132.66;;;20.34;70.31
15193;BME280;7697;51.630;7.484;2022-09-13T23:15:26;100135.84;;;20.31;71.17
15193;BME280;7697;51.630;7.484;2022-09-13T23:20:30;100138.53;;;20.31;71.03
15193;BME280;7697;51.630;7.484;2022-09-13T23:25:34;100119.72;;;20.31;71.36
15193;BME280;7697;51.630;7.484;2022-09-13T23:30:37;100111.97;;;20.19;71.15
15193;BME280;7697;51.630;7.484;2022-09-13T23:35:39;100109.84;;;20.06;71.26
15193;BME280;7697;51.630;7.484;2022-09-13T23:40:41;100112.31;;;20.03;71.35
15193;BME280;7697;51.630;7.484;2022-09-13T23:45:44;100115.78;;;19.98;71.49
